createdAt,value
2018-03-22T00:00:48.792Z,14.10
2018-03-22T00:03:18.037Z,16.00
2018-03-22T00:05:47.081Z,16.17
2018-03-22T00:08:15.453Z,14.23
2018-03-22T00:10:43.736Z,22.87
2018-03-22T00:13:12.457Z,20.10
2018-03-22T00:15:40.945Z,17.37
2018-03-22T00:18:10.900Z,20.20
2018-03-22T00:20:39.193Z,15.00
2018-03-22T00:23:07.494Z,16.33
2018-03-22T00:25:35.797Z,13.00
2018-03-22T00:28:05.205Z,9.97
2018-03-22T00:30:34.641Z,17.23
2018-03-22T00:33:02.940Z,28.43
2018-03-22T00:35:31.245Z,10.63
2018-03-22T00:37:59.523Z,12.80
2018-03-22T00:40:28.596Z,10.63
2018-03-22T00:42:56.892Z,16.53
2018-03-22T00:45:25.805Z,14.87
2018-03-22T00:47:55.247Z,21.80
2018-03-22T00:50:23.540Z,15.93
2018-03-22T00:52:51.916Z,19.40
2018-03-22T00:55:20.332Z,25.23
2018-03-22T00:57:48.646Z,15.63
2018-03-22T01:00:17.686Z,11.60
2018-03-22T01:02:46.836Z,17.90
2018-03-22T01:05:15.909Z,11.37
2018-03-22T01:07:45.009Z,9.83
2018-03-22T01:10:14.188Z,22.10
2018-03-22T01:12:42.545Z,19.77
2018-03-22T01:15:10.827Z,25.63
2018-03-22T01:17:39.218Z,14.00
2018-03-22T01:20:07.880Z,13.07
2018-03-22T01:22:37.638Z,23.43
2018-03-22T01:25:06.181Z,18.27
2018-03-22T01:27:35.750Z,15.80
2018-03-22T01:30:04.800Z,29.20
2018-03-22T01:32:33.265Z,20.60
2018-03-22T01:35:01.545Z,18.77
2018-03-22T01:37:29.815Z,22.70
2018-03-22T01:39:58.529Z,15.77
2018-03-22T01:42:26.804Z,27.03
2018-03-22T01:44:56.051Z,19.53
2018-03-22T01:47:25.189Z,19.67
2018-03-22T01:49:53.564Z,23.63
2018-03-22T01:52:23.496Z,26.47
2018-03-22T01:54:52.068Z,32.50
2018-03-22T01:57:21.331Z,25.70
2018-03-22T01:59:50.427Z,27.40
2018-03-22T02:02:19.980Z,29.00
2018-03-22T02:04:48.285Z,32.47
2018-03-22T02:07:17.213Z,44.57
2018-03-22T02:09:45.487Z,29.57
2018-03-22T02:12:15.034Z,32.23
2018-03-22T02:14:43.312Z,29.00
2018-03-22T02:17:11.592Z,32.73
2018-03-22T02:19:40.579Z,34.90
2018-03-22T02:22:09.840Z,38.53
2018-03-22T02:24:40.087Z,54.40
2018-03-22T02:27:08.356Z,45.83
2018-03-22T02:29:36.621Z,38.73
2018-03-22T02:32:05.710Z,56.07
2018-03-22T02:34:35.432Z,48.67
2018-03-22T02:37:05.440Z,53.63
2018-03-22T02:39:34.478Z,45.83
2018-03-22T02:42:03.326Z,63.00
2018-03-22T02:44:32.395Z,64.43
2018-03-22T02:47:00.742Z,70.97
2018-03-22T02:49:29.470Z,60.03
2018-03-22T02:51:57.818Z,62.30
2018-03-22T02:54:26.972Z,68.20
2018-03-22T02:56:58.694Z,76.73
2018-03-22T02:59:27.562Z,83.80
2018-03-22T03:01:56.359Z,89.83
2018-03-22T03:04:24.640Z,90.67
2018-03-22T03:06:53.918Z,96.77
2018-03-22T03:09:22.908Z,94.77
2018-03-22T03:11:51.197Z,98.97
2018-03-22T03:14:20.088Z,96.97
2018-03-22T03:16:49.175Z,110.73
2018-03-22T03:19:17.597Z,98.37
2018-03-22T03:21:45.908Z,141.40
2018-03-22T03:24:15.075Z,119.00
2018-03-22T03:26:43.599Z,112.37
2018-03-22T03:29:12.642Z,125.03
2018-03-22T03:31:41.338Z,106.03
2018-03-22T03:34:09.693Z,103.97
2018-03-22T03:36:38.096Z,108.57
2018-03-22T03:39:07.254Z,122.93
2018-03-22T03:41:35.589Z,133.70
2018-03-22T03:44:04.415Z,119.67
2018-03-22T03:46:34.417Z,136.80
2018-03-22T03:49:04.320Z,129.17
2018-03-22T03:51:34.208Z,134.20
2018-03-22T03:54:03.025Z,157.17
2018-03-22T03:56:31.373Z,146.70
2018-03-22T03:58:59.989Z,129.87
2018-03-22T04:01:28.361Z,144.77
2018-03-22T04:03:59.659Z,141.37
2018-03-22T04:06:28.080Z,154.93
2018-03-22T04:08:56.376Z,152.53
2018-03-22T04:11:24.724Z,170.47
2018-03-22T04:13:53.804Z,140.87
2018-03-22T04:16:22.500Z,139.57
2018-03-22T04:18:51.964Z,140.03
2018-03-22T04:21:22.230Z,150.17
2018-03-22T04:23:50.728Z,140.43
2018-03-22T04:26:20.557Z,160.67
2018-03-22T04:28:49.717Z,155.43
2018-03-22T04:31:19.097Z,166.33
2018-03-22T04:33:47.364Z,150.87
2018-03-22T04:36:17.126Z,161.60
2018-03-22T04:38:45.508Z,173.77
2018-03-22T04:41:13.784Z,158.00
2018-03-22T04:43:43.052Z,138.57
2018-03-22T04:46:12.488Z,165.47
2018-03-22T04:48:40.856Z,176.87
2018-03-22T04:51:09.176Z,172.00
2018-03-22T04:53:37.469Z,168.20
2018-03-22T04:56:06.529Z,139.67
2018-03-22T04:58:35.321Z,154.00
2018-03-22T05:01:03.686Z,165.57
2018-03-22T05:03:32.248Z,163.53
2018-03-22T05:06:00.532Z,169.70
2018-03-22T05:08:29.883Z,172.00
2018-03-22T05:10:59.482Z,172.57
2018-03-22T05:13:27.747Z,177.37
2018-03-22T05:15:56.284Z,165.33
2018-03-22T05:18:24.693Z,206.37
2018-03-22T05:20:53.227Z,182.40
2018-03-22T05:23:22.540Z,198.70
2018-03-22T05:25:51.690Z,204.10
2018-03-22T05:28:21.295Z,200.33
2018-03-22T05:30:49.588Z,201.93
2018-03-22T05:33:17.888Z,181.57
2018-03-22T05:35:46.935Z,211.37
2018-03-22T05:38:15.318Z,208.30
2018-03-22T05:40:44.398Z,183.67
2018-03-22T05:43:13.439Z,172.53
2018-03-22T05:45:41.743Z,203.50
2018-03-22T05:48:10.785Z,191.83
2018-03-22T05:50:40.856Z,185.60
2018-03-22T05:53:09.901Z,210.77
2018-03-22T05:55:38.439Z,173.67
2018-03-22T05:58:07.661Z,207.33
2018-03-22T06:00:35.948Z,192.00
2018-03-22T06:03:06.779Z,195.53
2018-03-22T06:05:36.610Z,171.27
2018-03-22T06:08:04.962Z,155.37
2018-03-22T06:10:33.271Z,185.70
2018-03-22T06:13:01.617Z,132.87
2018-03-22T06:15:30.628Z,183.73
2018-03-22T06:17:58.904Z,166.63
2018-03-22T06:20:27.831Z,158.43
2018-03-22T06:22:56.120Z,182.27
2018-03-22T06:25:24.463Z,184.77
2018-03-22T06:27:53.895Z,166.70
2018-03-22T06:30:22.250Z,157.07
2018-03-22T06:32:50.872Z,156.67
2018-03-22T06:35:19.233Z,135.13
2018-03-22T06:37:47.530Z,125.17
2018-03-22T06:40:15.820Z,131.00
2018-03-22T06:42:44.863Z,121.40
2018-03-22T06:45:13.153Z,137.17
2018-03-22T06:47:41.457Z,123.47
2018-03-22T06:50:10.168Z,134.03
2018-03-22T06:52:39.208Z,111.20
2018-03-22T06:55:07.555Z,149.97
2018-03-22T06:57:36.574Z,122.23
2018-03-22T07:00:04.848Z,111.67
2018-03-22T07:02:33.234Z,114.20
2018-03-22T07:05:01.521Z,112.60
2018-03-22T07:07:29.812Z,126.37
2018-03-22T07:09:58.149Z,97.40
2018-03-22T07:12:26.429Z,111.43
2018-03-22T07:14:54.720Z,99.37
2018-03-22T07:17:23.413Z,100.73
2018-03-22T07:19:52.238Z,115.20
2018-03-22T07:22:21.328Z,99.13
2018-03-22T07:24:50.224Z,94.80
2018-03-22T07:27:19.255Z,114.37
2018-03-22T07:29:47.540Z,109.13
2018-03-22T07:32:15.838Z,83.73
2018-03-22T07:34:45.473Z,76.17
2018-03-22T07:37:14.199Z,98.93
2018-03-22T07:39:44.802Z,98.67
2018-03-22T07:42:13.580Z,99.80
2018-03-22T07:44:41.851Z,90.57
2018-03-22T07:47:10.212Z,108.83
2018-03-22T07:49:39.408Z,101.87
2018-03-22T07:52:08.099Z,120.13
2018-03-22T07:54:37.540Z,112.77
2018-03-22T07:57:06.825Z,115.50
2018-03-22T07:59:35.109Z,110.03
2018-03-22T08:02:03.752Z,111.43
2018-03-22T08:04:32.175Z,97.63
2018-03-22T08:07:00.549Z,109.80
2018-03-22T08:09:28.933Z,100.70
2018-03-22T08:11:57.204Z,96.17
2018-03-22T08:14:25.878Z,111.00
2018-03-22T08:16:54.572Z,107.47
2018-03-22T08:19:22.880Z,110.57
2018-03-22T08:21:51.230Z,101.73
2018-03-22T08:24:20.143Z,119.80
2018-03-22T08:26:48.504Z,102.73
2018-03-22T08:29:16.900Z,90.97
2018-03-22T08:31:46.107Z,92.90
2018-03-22T08:34:14.412Z,100.20
2018-03-22T08:36:43.450Z,112.43
2018-03-22T08:39:11.729Z,97.70
2018-03-22T08:41:40.897Z,121.47
2018-03-22T08:44:09.165Z,85.93
2018-03-22T08:46:38.308Z,143.70
2018-03-22T08:49:06.679Z,119.57
2018-03-22T08:51:35.240Z,103.27
2018-03-22T08:54:03.521Z,103.70
2018-03-22T08:56:31.836Z,107.67
2018-03-22T08:59:00.172Z,105.23
2018-03-22T09:01:28.443Z,104.13
2018-03-22T09:03:57.866Z,109.33
2018-03-22T09:06:26.272Z,79.37
2018-03-22T09:08:54.557Z,59.07
2018-03-22T09:11:23.177Z,79.33
2018-03-22T09:13:52.224Z,52.93
2018-03-22T09:16:20.504Z,60.00
2018-03-22T09:18:48.921Z,48.67
2018-03-22T09:21:17.292Z,48.20
2018-03-22T09:23:46.285Z,49.73
2018-03-22T09:26:15.252Z,50.50
2018-03-22T09:28:43.524Z,56.67
2018-03-22T09:31:11.828Z,38.37
2018-03-22T09:33:40.856Z,43.27
2018-03-22T09:36:10.536Z,35.03
2018-03-22T09:38:38.816Z,27.70
2018-03-22T09:41:07.880Z,38.93
2018-03-22T09:43:36.156Z,27.40
2018-03-22T09:46:04.845Z,27.07
2018-03-22T09:48:33.112Z,27.43
2018-03-22T09:51:01.398Z,31.77
2018-03-22T09:53:29.761Z,29.27
2018-03-22T09:55:57.976Z,28.97
2018-03-22T09:58:26.759Z,26.70
2018-03-22T10:00:55.077Z,23.00
2018-03-22T10:03:24.105Z,25.07
2018-03-22T10:05:53.192Z,36.83
2018-03-22T10:08:21.596Z,19.53
2018-03-22T10:10:51.538Z,21.47
2018-03-22T10:13:20.295Z,16.27
2018-03-22T10:15:48.601Z,16.40
2018-03-22T10:18:16.879Z,17.93
2018-03-22T10:20:45.548Z,23.77
2018-03-22T10:23:14.648Z,18.40
2018-03-22T10:25:42.924Z,13.80
2018-03-22T10:28:11.820Z,12.10
2018-03-22T10:30:40.207Z,14.07
2018-03-22T10:33:08.470Z,11.77
2018-03-22T10:35:36.809Z,14.10
2018-03-22T10:38:05.885Z,11.83
2018-03-22T10:40:34.751Z,15.03
2018-03-22T10:43:03.645Z,13.13
2018-03-22T10:45:31.957Z,12.40
2018-03-22T10:48:01.212Z,13.30
2018-03-22T10:50:30.192Z,18.57
2018-03-22T10:52:58.679Z,15.30
2018-03-22T10:55:26.965Z,12.33
2018-03-22T10:57:55.256Z,12.67
2018-03-22T11:00:30.037Z,12.27
2018-03-22T11:06:04.013Z,9.43
2018-03-22T11:08:32.368Z,13.30
2018-03-22T11:11:00.656Z,12.80
2018-03-22T11:13:28.926Z,11.60
2018-03-22T11:15:57.524Z,8.33
2018-03-22T11:18:25.791Z,12.33
2018-03-22T11:20:54.058Z,12.73
2018-03-22T11:23:22.357Z,15.67
2018-03-22T11:25:50.628Z,24.10
2018-03-22T11:28:19.947Z,8.83
2018-03-22T11:30:48.261Z,21.03
2018-03-22T11:33:17.303Z,13.27
2018-03-22T11:35:45.560Z,16.83
2018-03-22T11:38:13.924Z,20.80
2018-03-22T11:40:42.955Z,19.90
2018-03-22T11:43:11.228Z,14.43
2018-03-22T11:45:39.541Z,17.70
2018-03-22T11:48:07.909Z,12.23
2018-03-22T11:50:37.088Z,11.10
2018-03-22T11:53:05.378Z,11.20
2018-03-22T11:55:33.668Z,10.63
2018-03-22T11:58:01.944Z,15.93
2018-03-22T12:00:30.252Z,10.57
2018-03-22T12:02:59.284Z,9.00
2018-03-22T12:05:27.581Z,12.70
2018-03-22T12:07:56.061Z,14.87
2018-03-22T12:10:24.343Z,16.00
2018-03-22T12:12:52.628Z,11.87
2018-03-22T12:15:20.980Z,9.10
2018-03-22T12:17:49.244Z,8.17
2018-03-22T12:20:17.519Z,7.13
2018-03-22T12:22:46.337Z,10.00
2018-03-22T12:25:14.619Z,15.23
2018-03-22T12:27:43.005Z,8.67
2018-03-22T12:30:11.289Z,9.10
2018-03-22T12:32:40.493Z,5.80
2018-03-22T12:35:08.800Z,14.30
2018-03-22T12:37:37.692Z,6.10
2018-03-22T12:40:05.948Z,7.20
2018-03-22T12:42:34.322Z,9.80
2018-03-22T12:45:02.596Z,11.07
2018-03-22T12:47:31.712Z,11.80
2018-03-22T12:50:00.020Z,10.07
2018-03-22T12:52:30.034Z,12.90
2018-03-22T12:54:59.098Z,7.77
2018-03-22T12:57:27.368Z,16.60
2018-03-22T12:59:56.296Z,28.63
2018-03-22T13:02:25.359Z,28.30
2018-03-22T13:04:54.071Z,21.40
2018-03-22T13:07:22.351Z,25.70
2018-03-22T13:09:51.501Z,18.40
2018-03-22T13:12:20.069Z,18.10
2018-03-22T13:14:49.708Z,17.47
2018-03-22T13:17:18.182Z,19.00
2018-03-22T13:19:46.580Z,26.03
2018-03-22T13:22:15.199Z,18.53
2018-03-22T13:24:44.266Z,21.80
2018-03-22T13:27:12.603Z,25.93
2018-03-22T13:29:40.887Z,32.17
2018-03-22T13:32:09.163Z,32.03
2018-03-22T13:34:37.908Z,30.33
2018-03-22T13:37:06.984Z,35.13
2018-03-22T13:39:35.600Z,37.07
2018-03-22T13:42:04.694Z,26.23
2018-03-22T13:44:34.513Z,24.33
2018-03-22T13:47:03.560Z,26.27
2018-03-22T13:49:31.836Z,23.77
2018-03-22T13:52:00.508Z,26.10
2018-03-22T13:54:28.891Z,45.70
2018-03-22T13:56:57.358Z,23.17
2018-03-22T13:59:26.580Z,30.97
2018-03-22T14:01:54.959Z,31.17
2018-03-22T14:04:23.247Z,23.83
2018-03-22T14:06:51.611Z,23.47
2018-03-22T14:09:20.800Z,30.30
2018-03-22T14:11:49.092Z,30.33
2018-03-22T14:14:17.973Z,37.67
2018-03-22T14:16:46.368Z,38.73
2018-03-22T14:19:14.644Z,32.93
2018-03-22T14:21:43.124Z,25.53
2018-03-22T14:24:11.449Z,24.87
2018-03-22T14:26:40.481Z,21.20
2018-03-22T14:29:08.929Z,28.57
2018-03-22T14:31:37.976Z,34.00
2018-03-22T14:34:06.249Z,26.73
2018-03-22T14:36:34.536Z,31.27
2018-03-22T14:39:02.860Z,24.60
2018-03-22T14:41:31.903Z,26.57
2018-03-22T14:44:00.185Z,30.43
2018-03-22T14:46:28.761Z,19.50
2018-03-22T14:48:57.569Z,23.17
2018-03-22T14:51:26.565Z,21.47
2018-03-22T14:53:54.921Z,21.60
2018-03-22T14:56:23.200Z,9.83
2018-03-22T14:58:52.455Z,9.40
2018-03-22T15:01:22.168Z,8.77
2018-03-22T15:03:51.203Z,5.90
2018-03-22T15:06:20.205Z,14.27
2018-03-22T15:08:49.936Z,9.43
2018-03-22T15:11:18.295Z,10.20
2018-03-22T15:13:46.570Z,6.57
2018-03-22T15:16:14.877Z,10.63
2018-03-22T15:18:43.142Z,16.30
2018-03-22T15:21:11.428Z,12.57
2018-03-22T15:23:39.949Z,9.33
2018-03-22T15:26:08.984Z,16.33
2018-03-22T15:28:37.805Z,20.90
2018-03-22T15:31:06.296Z,13.10
2018-03-22T15:33:34.639Z,19.10
2018-03-22T15:36:02.915Z,19.00
2018-03-22T15:38:31.299Z,15.47
2018-03-22T15:41:00.228Z,21.93
2018-03-22T15:43:28.500Z,12.70
2018-03-22T15:45:56.816Z,20.83
2018-03-22T15:48:25.321Z,26.40
2018-03-22T15:50:54.169Z,24.33
2018-03-22T15:53:23.207Z,29.70
2018-03-22T15:55:51.520Z,27.73
2018-03-22T15:58:20.237Z,25.07
2018-03-22T16:00:49.309Z,23.30
2018-03-22T16:03:17.629Z,14.67
2018-03-22T16:05:45.916Z,18.30
2018-03-22T16:08:14.944Z,23.73
2018-03-22T16:10:43.405Z,20.33
2018-03-22T16:13:11.673Z,16.83
2018-03-22T16:15:39.973Z,17.50
2018-03-22T16:18:08.277Z,17.97
2018-03-22T16:20:36.548Z,19.03
2018-03-22T16:23:04.839Z,14.83
2018-03-22T16:25:33.118Z,19.20
2018-03-22T16:28:01.872Z,17.20
2018-03-22T16:30:30.148Z,22.70
2018-03-22T16:32:58.477Z,18.57
2018-03-22T16:35:27.829Z,22.43
2018-03-22T16:37:56.109Z,18.47
2018-03-22T16:40:24.426Z,16.47
2018-03-22T16:42:53.470Z,23.40
2018-03-22T16:45:21.899Z,23.17
2018-03-22T16:47:50.857Z,19.77
2018-03-22T16:50:19.132Z,14.80
2018-03-22T16:52:47.426Z,20.77
2018-03-22T16:55:15.788Z,30.53
2018-03-22T16:57:44.061Z,19.20
2018-03-22T17:00:12.348Z,14.10
2018-03-22T17:02:40.816Z,25.27
2018-03-22T17:05:09.112Z,17.90
2018-03-22T17:07:37.399Z,19.67
2018-03-22T17:10:05.694Z,19.00
2018-03-22T17:12:33.976Z,23.63
2018-03-22T17:15:02.768Z,21.10
2018-03-22T17:17:31.608Z,25.07
2018-03-22T17:20:00.004Z,31.27
2018-03-22T17:22:28.317Z,25.60
2018-03-22T17:24:57.206Z,31.53
2018-03-22T17:27:25.564Z,30.20
2018-03-22T17:29:53.843Z,29.30
2018-03-22T17:32:22.119Z,28.57
2018-03-22T17:34:50.680Z,22.87
2018-03-22T17:37:18.961Z,26.80
2018-03-22T17:39:47.736Z,23.40
2018-03-22T17:42:16.041Z,19.97
2018-03-22T17:44:44.314Z,22.77
2018-03-22T17:47:12.590Z,24.07
2018-03-22T17:49:41.066Z,25.80
2018-03-22T17:52:09.353Z,22.83
2018-03-22T17:54:37.628Z,26.57
2018-03-22T17:57:06.317Z,27.17
2018-03-22T17:59:34.604Z,35.00
2018-03-22T18:02:03.743Z,30.30
2018-03-22T18:04:32.885Z,42.40
2018-03-22T18:07:01.172Z,35.33
2018-03-22T18:09:29.441Z,35.57
2018-03-22T18:11:57.748Z,37.23
2018-03-22T18:14:26.200Z,36.27
2018-03-22T18:16:55.000Z,43.20
2018-03-22T18:19:24.083Z,45.60
2018-03-22T18:21:53.279Z,40.87
2018-03-22T18:24:21.998Z,42.27
2018-03-22T18:26:51.180Z,43.03
2018-03-22T18:29:19.657Z,44.17
2018-03-22T18:31:47.952Z,45.00
2018-03-22T18:34:16.241Z,47.10
2018-03-22T18:36:44.527Z,51.20
2018-03-22T18:39:13.376Z,46.40
2018-03-22T18:41:41.969Z,56.17
2018-03-22T18:44:10.879Z,50.53
2018-03-22T18:46:39.674Z,43.47
2018-03-22T18:49:08.445Z,51.03
2018-03-22T18:51:37.252Z,46.70
2018-03-22T18:54:06.138Z,51.37
2018-03-22T18:56:35.122Z,52.30
2018-03-22T18:59:03.938Z,53.27
2018-03-22T19:01:33.048Z,44.70
2018-03-22T19:04:03.014Z,61.17
2018-03-22T19:06:31.300Z,48.57
2018-03-22T19:08:59.630Z,49.67
2018-03-22T19:11:28.670Z,51.17
2018-03-22T19:13:56.948Z,43.07
2018-03-22T19:16:26.240Z,63.47
2018-03-22T19:18:54.870Z,59.17
2018-03-22T19:21:23.665Z,58.10
2018-03-22T19:23:52.550Z,53.40
2018-03-22T19:26:20.819Z,47.67
2018-03-22T19:28:49.098Z,48.70
2018-03-22T19:31:17.397Z,51.53
2018-03-22T19:33:46.437Z,50.13
2018-03-22T19:36:15.546Z,44.00
2018-03-22T19:38:44.010Z,44.30
2018-03-22T19:41:13.041Z,39.93
2018-03-22T19:43:41.340Z,61.60
2018-03-22T19:46:10.414Z,48.77
2018-03-22T19:48:38.732Z,52.80
2018-03-22T19:51:07.070Z,48.97
2018-03-22T19:53:36.179Z,50.90
2018-03-22T19:56:14.837Z,53.93
2018-03-22T19:58:44.125Z,49.07
2018-03-22T20:01:13.785Z,57.43
2018-03-22T20:03:42.093Z,46.60
2018-03-22T20:06:11.217Z,61.87
2018-03-22T20:08:39.497Z,59.87
2018-03-22T20:11:08.608Z,70.47
2018-03-22T20:13:37.653Z,43.87
2018-03-22T20:16:06.034Z,63.07
2018-03-22T20:18:34.374Z,53.07
2018-03-22T20:21:02.717Z,48.37
2018-03-22T20:23:31.760Z,60.60
2018-03-22T20:26:00.116Z,54.20
2018-03-22T20:28:28.399Z,49.13
2018-03-22T20:30:56.687Z,45.60
2018-03-22T20:33:24.982Z,41.67
2018-03-22T20:35:53.280Z,39.37
2018-03-22T20:38:21.593Z,35.37
2018-03-22T20:40:49.866Z,39.57
2018-03-22T20:43:18.909Z,34.13
2018-03-22T20:45:47.297Z,32.33
2018-03-22T20:48:16.514Z,33.20
2018-03-22T20:50:45.106Z,26.33
2018-03-22T20:53:14.277Z,34.30
2018-03-22T20:55:42.882Z,28.17
2018-03-22T20:58:11.244Z,25.17
2018-03-22T21:00:39.493Z,30.23
2018-03-22T21:03:08.615Z,26.83
2018-03-22T21:05:37.821Z,34.37
2018-03-22T21:08:06.960Z,23.43
2018-03-22T21:10:35.272Z,25.97
2018-03-22T21:13:03.615Z,21.73
2018-03-22T21:15:32.662Z,23.10
2018-03-22T21:18:00.942Z,25.57
2018-03-22T21:20:29.238Z,22.50
2018-03-22T21:22:57.589Z,20.03
2018-03-22T21:25:25.869Z,23.53
2018-03-22T21:27:54.249Z,24.80
2018-03-22T21:30:22.546Z,20.10
2018-03-22T21:32:51.006Z,16.83
2018-03-22T21:35:19.324Z,21.43
2018-03-22T21:37:49.193Z,19.53
2018-03-22T21:40:17.484Z,22.80
2018-03-22T21:42:46.468Z,25.33
2018-03-22T21:45:15.062Z,17.73
2018-03-22T21:47:43.353Z,19.90
2018-03-22T21:50:11.661Z,23.27
2018-03-22T21:52:46.669Z,20.30
2018-03-22T21:55:15.188Z,20.23
2018-03-22T21:57:44.236Z,20.27
2018-03-22T22:00:12.612Z,20.20
2018-03-22T22:02:40.884Z,20.27
2018-03-22T22:05:09.168Z,23.60
2018-03-22T22:07:37.742Z,18.93
2018-03-22T22:10:06.008Z,20.83
2018-03-22T22:12:34.319Z,19.27
2018-03-22T22:15:03.338Z,16.00
2018-03-22T22:17:32.399Z,20.63
2018-03-22T22:20:00.874Z,16.20
2018-03-22T22:22:29.145Z,21.30
2018-03-22T22:24:57.430Z,16.07
2018-03-22T22:27:25.794Z,22.27
2018-03-22T22:29:54.705Z,15.80
2018-03-22T22:32:22.980Z,15.77
2018-03-22T22:34:51.560Z,14.10
2018-03-22T22:37:19.838Z,12.17
2018-03-22T22:39:49.777Z,18.40
2018-03-22T22:42:18.964Z,19.83
2018-03-22T22:44:47.648Z,9.37
2018-03-22T22:47:15.993Z,19.93
2018-03-22T22:49:44.430Z,11.30
2018-03-22T22:52:12.868Z,12.83
2018-03-22T22:54:41.374Z,14.13
2018-03-22T22:57:09.641Z,13.93
2018-03-22T22:59:37.916Z,11.30
2018-03-22T23:02:06.931Z,10.70
2018-03-22T23:04:35.223Z,12.10
2018-03-22T23:07:03.589Z,12.43
2018-03-22T23:09:31.889Z,17.67
2018-03-22T23:12:01.087Z,15.47
2018-03-22T23:14:29.387Z,11.93
2018-03-22T23:16:58.483Z,10.93
2018-03-22T23:19:27.793Z,13.90
2018-03-22T23:21:56.084Z,14.93
2018-03-22T23:24:25.713Z,16.23
2018-03-22T23:26:54.841Z,9.97
2018-03-22T23:29:23.390Z,11.33
2018-03-22T23:31:51.706Z,10.23
2018-03-22T23:34:20.072Z,9.20
2018-03-22T23:36:48.368Z,13.43
2018-03-22T23:39:16.652Z,9.50
2018-03-22T23:41:45.691Z,13.23
2018-03-22T23:44:14.794Z,5.97
2018-03-22T23:46:43.084Z,7.50
2018-03-22T23:49:11.373Z,10.03
2018-03-22T23:51:39.665Z,9.27
2018-03-22T23:54:08.890Z,6.80
2018-03-22T23:56:37.916Z,7.77
2018-03-22T23:59:06.416Z,9.73
